sensor_id;sensor_type;location;lat;lon;timestamp;temperature;humidity
18823;DHT22;9540;51.550;7.980;2022-09-14T00:00:01;17.10;99.90
18823;DHT22;9540;51.550;7.980;2022-09-14T00:02:28;17.10;99.90
18823;DHT22;9540;51.550;7.980;2022-09-14T00:04:55;17.00;99.90
18823;DHT22;9540;51.550;7.980;2022-09-14T00:07:22;17.00;99.90
18823;DHT22;9540;51.550;7.980;2022-09-14T00:09:51;16.90;99.90
18823;DHT22;9540;51.550;7.980;2022-09-14T00:12:19;16.90;99.90
18823;DHT22;9540;51.550;7.980;2022-09-14T00:14:46;16.90;99.90
18823;DHT22;9540;51.550;7.980;2022-09-14T00:17:13;16.90;99.90
18823;DHT22;9540;51.550;7.980;2022-09-14T00:19:40;16.80;99.90
18823;DHT22;9540;51.550;7.980;2022-09-14T00:22:07;16.80;99.90
18823;DHT22;9540;51.550;7.980;2022-09-14T00:24:34;16.80;99.90
18823;DHT22;9540;51.550;7.980;2022-09-14T00:27:03;16.80;99.90
18823;DHT22;9540;51.550;7.980;2022-09-14T00:29:30;16.80;99.90
18823;DHT22;9540;51.550;7.980;2022-09-14T00:31:58;16.70;99.90
18823;DHT22;9540;51.550;7.980;2022-09-14T00:34:25;16.70;99.90
18823;DHT22;9540;51.550;7.980;2022-09-14T00:36:52;16.80;99.90
18823;DHT22;9540;51.550;7.980;2022-09-14T00:39:22;16.70;99.90
18823;DHT22;9540;51.550;7.980;2022-09-14T00:41:50;16.70;99.90
18823;DHT22;9540;51.550;7.980;2022-09-14T00:47:23;16.70;99.90
18823;DHT22;9540;51.550;7.980;2022-09-14T00:49:50;16.70;99.90
18823;DHT22;9540;51.550;7.980;2022-09-14T00:52:20;16.70;99.90
18823;DHT22;9540;51.550;7.980;2022-09-14T00:54:53;16.70;99.90
18823;DHT22;9540;51.550;7.980;2022-09-14T00:57:20;16.70;99.90
18823;DHT22;9540;51.550;7.980;2022-09-14T00:59:50;16.60;99.90
18823;DHT22;9540;51.550;7.980;2022-09-14T01:02:19;16.60;99.90
18823;DHT22;9540;51.550;7.980;2022-09-14T01:04:49;16.60;99.90
18823;DHT22;9540;51.550;7.980;2022-09-14T01:07:33;16.50;99.90
18823;DHT22;9540;51.550;7.980;2022-09-14T01:10:14;16.50;99.90
18823;DHT22;9540;51.550;7.980;2022-09-14T01:12:50;16.60;99.90
18823;DHT22;9540;51.550;7.980;2022-09-14T01:15:25;16.50;99.90
18823;DHT22;9540;51.550;7.980;2022-09-14T01:17:59;16.40;99.90
18823;DHT22;9540;51.550;7.980;2022-09-14T01:20:36;16.40;99.90
18823;DHT22;9540;51.550;7.980;2022-09-14T01:23:08;16.40;99.90
18823;DHT22;9540;51.550;7.980;2022-09-14T01:26:02;16.40;99.90
18823;DHT22;9540;51.550;7.980;2022-09-14T01:28:39;16.40;99.90
18823;DHT22;9540;51.550;7.980;2022-09-14T01:31:12;16.40;99.90
18823;DHT22;9540;51.550;7.980;2022-09-14T01:33:44;16.40;99.90
18823;DHT22;9540;51.550;7.980;2022-09-14T01:36:14;16.40;99.90
18823;DHT22;9540;51.550;7.980;2022-09-14T01:38:44;16.40;99.90
18823;DHT22;9540;51.550;7.980;2022-09-14T01:41:14;16.30;99.90
18823;DHT22;9540;51.550;7.980;2022-09-14T01:43:45;16.40;99.90
18823;DHT22;9540;51.550;7.980;2022-09-14T01:46:16;16.40;99.90
18823;DHT22;9540;51.550;7.980;2022-09-14T01:48:48;16.30;99.90
18823;DHT22;9540;51.550;7.980;2022-09-14T01:51:20;16.30;99.90
18823;DHT22;9540;51.550;7.980;2022-09-14T01:53:51;16.40;99.90
18823;DHT22;9540;51.550;7.980;2022-09-14T01:56:22;16.30;99.90
18823;DHT22;9540;51.550;7.980;2022-09-14T01:58:55;16.20;99.90
18823;DHT22;9540;51.550;7.980;2022-09-14T02:01:32;16.30;99.90
18823;DHT22;9540;51.550;7.980;2022-09-14T02:04:04;16.30;99.90
18823;DHT22;9540;51.550;7.980;2022-09-14T02:06:35;16.30;99.90
18823;DHT22;9540;51.550;7.980;2022-09-14T02:09:04;16.20;99.90
18823;DHT22;9540;51.550;7.980;2022-09-14T02:11:32;16.20;99.90
18823;DHT22;9540;51.550;7.980;2022-09-14T02:14:01;16.20;99.90
18823;DHT22;9540;51.550;7.980;2022-09-14T02:16:28;16.30;99.90
18823;DHT22;9540;51.550;7.980;2022-09-14T02:18:59;16.20;99.90
18823;DHT22;9540;51.550;7.980;2022-09-14T02:21:28;16.20;99.90
18823;DHT22;9540;51.550;7.980;2022-09-14T02:23:57;16.20;99.90
18823;DHT22;9540;51.550;7.980;2022-09-14T02:26:25;16.20;99.90
18823;DHT22;9540;51.550;7.980;2022-09-14T02:28:53;16.10;99.90
18823;DHT22;9540;51.550;7.980;2022-09-14T02:31:28;16.10;99.90
18823;DHT22;9540;51.550;7.980;2022-09-14T02:34:07;16.10;99.90
18823;DHT22;9540;51.550;7.980;2022-09-14T02:36:45;16.10;99.90
18823;DHT22;9540;51.550;7.980;2022-09-14T02:39:20;16.00;99.90
18823;DHT22;9540;51.550;7.980;2022-09-14T02:41:56;16.00;99.90
18823;DHT22;9540;51.550;7.980;2022-09-14T02:44:32;16.00;99.90
18823;DHT22;9540;51.550;7.980;2022-09-14T02:47:05;15.90;99.90
18823;DHT22;9540;51.550;7.980;2022-09-14T02:49:43;15.90;99.90
18823;DHT22;9540;51.550;7.980;2022-09-14T02:52:16;15.90;99.90
18823;DHT22;9540;51.550;7.980;2022-09-14T02:54:51;15.80;99.90
18823;DHT22;9540;51.550;7.980;2022-09-14T02:57:19;15.80;99.90
18823;DHT22;9540;51.550;7.980;2022-09-14T02:59:46;15.80;99.90
18823;DHT22;9540;51.550;7.980;2022-09-14T03:02:15;15.70;99.90
18823;DHT22;9540;51.550;7.980;2022-09-14T03:04:42;15.70;99.90
18823;DHT22;9540;51.550;7.980;2022-09-14T03:07:09;15.70;99.90
18823;DHT22;9540;51.550;7.980;2022-09-14T03:09:36;15.60;99.90
18823;DHT22;9540;51.550;7.980;2022-09-14T03:12:04;15.60;99.90
18823;DHT22;9540;51.550;7.980;2022-09-14T03:14:31;15.60;99.90
18823;DHT22;9540;51.550;7.980;2022-09-14T03:16:58;15.60;99.90
18823;DHT22;9540;51.550;7.980;2022-09-14T03:19:26;15.60;99.90
18823;DHT22;9540;51.550;7.980;2022-09-14T03:21:53;15.50;99.90
18823;DHT22;9540;51.550;7.980;2022-09-14T03:24:21;15.50;99.90
18823;DHT22;9540;51.550;7.980;2022-09-14T03:26:48;15.50;99.90
18823;DHT22;9540;51.550;7.980;2022-09-14T03:29:16;15.50;99.90
18823;DHT22;9540;51.550;7.980;2022-09-14T03:31:44;15.40;99.90
18823;DHT22;9540;51.550;7.980;2022-09-14T03:34:11;15.40;99.90
18823;DHT22;9540;51.550;7.980;2022-09-14T03:36:39;15.40;99.90
18823;DHT22;9540;51.550;7.980;2022-09-14T03:39:08;15.30;99.90
18823;DHT22;9540;51.550;7.980;2022-09-14T03:41:35;15.30;99.90
18823;DHT22;9540;51.550;7.980;2022-09-14T03:44:02;15.30;99.90
18823;DHT22;9540;51.550;7.980;2022-09-14T03:46:29;15.30;99.90
18823;DHT22;9540;51.550;7.980;2022-09-14T03:48:56;15.20;99.90
18823;DHT22;9540;51.550;7.980;2022-09-14T03:51:23;15.10;99.90
18823;DHT22;9540;51.550;7.980;2022-09-14T03:53:52;15.10;99.90
18823;DHT22;9540;51.550;7.980;2022-09-14T03:56:20;15.10;99.90
18823;DHT22;9540;51.550;7.980;2022-09-14T03:58:48;15.10;99.90
18823;DHT22;9540;51.550;7.980;2022-09-14T04:01:17;15.10;99.90
18823;DHT22;9540;51.550;7.980;2022-09-14T04:03:44;15.10;99.90
18823;DHT22;9540;51.550;7.980;2022-09-14T04:06:12;15.10;99.90
18823;DHT22;9540;51.550;7.980;2022-09-14T04:08:41;15.10;99.90
18823;DHT22;9540;51.550;7.980;2022-09-14T04:11:12;15.10;99.90
18823;DHT22;9540;51.550;7.980;2022-09-14T04:13:40;15.10;99.90
18823;DHT22;9540;51.550;7.980;2022-09-14T04:16:07;15.10;99.90
18823;DHT22;9540;51.550;7.980;2022-09-14T04:18:34;15.10;99.90
18823;DHT22;9540;51.550;7.980;2022-09-14T04:21:03;15.00;99.90
18823;DHT22;9540;51.550;7.980;2022-09-14T04:23:31;15.00;99.90
18823;DHT22;9540;51.550;7.980;2022-09-14T04:25:58;15.00;99.90
18823;DHT22;9540;51.550;7.980;2022-09-14T04:28:27;15.10;99.90
18823;DHT22;9540;51.550;7.980;2022-09-14T04:30:56;15.10;99.90
18823;DHT22;9540;51.550;7.980;2022-09-14T04:33:24;15.10;99.90
18823;DHT22;9540;51.550;7.980;2022-09-14T04:35:59;15.10;99.90
18823;DHT22;9540;51.550;7.980;2022-09-14T04:38:26;15.10;99.90
18823;DHT22;9540;51.550;7.980;2022-09-14T04:40:53;15.10;99.90
18823;DHT22;9540;51.550;7.980;2022-09-14T04:43:20;15.10;99.90
18823;DHT22;9540;51.550;7.980;2022-09-14T04:45:49;15.00;99.90
18823;DHT22;9540;51.550;7.980;2022-09-14T04:48:16;15.00;99.90
18823;DHT22;9540;51.550;7.980;2022-09-14T04:50:44;14.90;99.90
18823;DHT22;9540;51.550;7.980;2022-09-14T04:53:11;14.90;99.90
18823;DHT22;9540;51.550;7.980;2022-09-14T04:55:38;14.80;99.90
18823;DHT22;9540;51.550;7.980;2022-09-14T04:58:06;14.70;99.90
18823;DHT22;9540;51.550;7.980;2022-09-14T05:00:33;14.50;99.90
18823;DHT22;9540;51.550;7.980;2022-09-14T05:03:03;14.50;99.90
18823;DHT22;9540;51.550;7.980;2022-09-14T05:05:34;14.40;99.90
18823;DHT22;9540;51.550;7.980;2022-09-14T05:08:03;14.30;99.90
18823;DHT22;9540;51.550;7.980;2022-09-14T05:10:30;14.30;99.90
18823;DHT22;9540;51.550;7.980;2022-09-14T05:12:57;14.30;99.90
18823;DHT22;9540;51.550;7.980;2022-09-14T05:15:24;14.20;99.90
18823;DHT22;9540;51.550;7.980;2022-09-14T05:17:51;14.10;99.90
18823;DHT22;9540;51.550;7.980;2022-09-14T05:20:19;14.10;99.90
18823;DHT22;9540;51.550;7.980;2022-09-14T05:22:48;14.10;99.90
18823;DHT22;9540;51.550;7.980;2022-09-14T05:25:15;14.10;99.90
18823;DHT22;9540;51.550;7.980;2022-09-14T05:27:42;14.00;99.90
18823;DHT22;9540;51.550;7.980;2022-09-14T05:30:10;14.00;99.90
18823;DHT22;9540;51.550;7.980;2022-09-14T05:32:37;13.90;99.90
18823;DHT22;9540;51.550;7.980;2022-09-14T05:35:05;13.90;99.90
18823;DHT22;9540;51.550;7.980;2022-09-14T05:37:33;13.90;99.90
18823;DHT22;9540;51.550;7.980;2022-09-14T05:40:01;13.80;99.90
18823;DHT22;9540;51.550;7.980;2022-09-14T05:42:28;13.80;99.90
18823;DHT22;9540;51.550;7.980;2022-09-14T05:44:55;13.70;99.90
18823;DHT22;9540;51.550;7.980;2022-09-14T05:47:22;13.70;99.90
18823;DHT22;9540;51.550;7.980;2022-09-14T05:49:49;13.60;99.90
18823;DHT22;9540;51.550;7.980;2022-09-14T05:52:16;13.60;99.90
18823;DHT22;9540;51.550;7.980;2022-09-14T05:54:45;13.50;99.90
18823;DHT22;9540;51.550;7.980;2022-09-14T05:57:12;13.40;99.90
18823;DHT22;9540;51.550;7.980;2022-09-14T05:59:39;13.40;99.90
18823;DHT22;9540;51.550;7.980;2022-09-14T06:02:07;13.40;99.90
18823;DHT22;9540;51.550;7.980;2022-09-14T06:04:35;13.40;99.90
18823;DHT22;9540;51.550;7.980;2022-09-14T06:07:02;13.40;99.90
18823;DHT22;9540;51.550;7.980;2022-09-14T06:09:29;13.40;99.90
18823;DHT22;9540;51.550;7.980;2022-09-14T06:11:57;13.40;99.90
18823;DHT22;9540;51.550;7.980;2022-09-14T06:14:25;13.50;99.90
18823;DHT22;9540;51.550;7.980;2022-09-14T06:16:52;13.50;99.90
18823;DHT22;9540;51.550;7.980;2022-09-14T06:19:19;13.50;99.90
18823;DHT22;9540;51.550;7.980;2022-09-14T06:21:46;13.50;99.90
18823;DHT22;9540;51.550;7.980;2022-09-14T06:24:13;13.60;99.90
18823;DHT22;9540;51.550;7.980;2022-09-14T06:26:40;13.60;99.90
18823;DHT22;9540;51.550;7.980;2022-09-14T06:29:09;13.60;99.90
18823;DHT22;9540;51.550;7.980;2022-09-14T06:31:36;13.60;99.90
18823;DHT22;9540;51.550;7.980;2022-09-14T06:34:06;13.60;99.90
18823;DHT22;9540;51.550;7.980;2022-09-14T06:36:33;13.60;99.90
18823;DHT22;9540;51.550;7.980;2022-09-14T06:39:00;13.60;99.90
18823;DHT22;9540;51.550;7.980;2022-09-14T06:41:27;13.60;99.90
18823;DHT22;9540;51.550;7.980;2022-09-14T06:43:56;13.70;99.90
18823;DHT22;9540;51.550;7.980;2022-09-14T06:46:27;13.70;99.90
18823;DHT22;9540;51.550;7.980;2022-09-14T06:48:56;13.70;99.90
18823;DHT22;9540;51.550;7.980;2022-09-14T06:51:26;13.70;99.90
18823;DHT22;9540;51.550;7.980;2022-09-14T06:53:55;13.60;99.90
18823;DHT22;9540;51.550;7.980;2022-09-14T06:56:24;13.60;99.90
18823;DHT22;9540;51.550;7.980;2022-09-14T06:58:51;13.60;99.90
18823;DHT22;9540;51.550;7.980;2022-09-14T07:01:19;13.60;99.90
18823;DHT22;9540;51.550;7.980;2022-09-14T07:03:48;13.60;99.90
18823;DHT22;9540;51.550;7.980;2022-09-14T07:06:18;13.60;99.90
18823;DHT22;9540;51.550;7.980;2022-09-14T07:08:46;13.60;99.90
18823;DHT22;9540;51.550;7.980;2022-09-14T07:11:15;13.60;99.90
18823;DHT22;9540;51.550;7.980;2022-09-14T07:13:43;13.60;99.90
18823;DHT22;9540;51.550;7.980;2022-09-14T07:16:11;13.60;99.90
18823;DHT22;9540;51.550;7.980;2022-09-14T07:18:38;13.60;99.90
18823;DHT22;9540;51.550;7.980;2022-09-14T07:21:08;13.60;99.90
18823;DHT22;9540;51.550;7.980;2022-09-14T07:23:37;13.60;99.90
18823;DHT22;9540;51.550;7.980;2022-09-14T07:26:09;13.60;99.90
18823;DHT22;9540;51.550;7.980;2022-09-14T07:28:37;13.60;99.90
18823;DHT22;9540;51.550;7.980;2022-09-14T07:31:12;13.60;99.90
18823;DHT22;9540;51.550;7.980;2022-09-14T07:33:40;13.60;99.90
18823;DHT22;9540;51.550;7.980;2022-09-14T07:36:10;13.70;99.90
18823;DHT22;9540;51.550;7.980;2022-09-14T07:38:37;13.60;99.90
18823;DHT22;9540;51.550;7.980;2022-09-14T07:41:05;13.70;99.90
18823;DHT22;9540;51.550;7.980;2022-09-14T07:43:32;13.70;99.90
18823;DHT22;9540;51.550;7.980;2022-09-14T07:46:01;13.70;99.90
18823;DHT22;9540;51.550;7.980;2022-09-14T07:48:29;13.70;99.90
18823;DHT22;9540;51.550;7.980;2022-09-14T07:50:59;13.70;99.90
18823;DHT22;9540;51.550;7.980;2022-09-14T07:53:28;13.70;99.90
18823;DHT22;9540;51.550;7.980;2022-09-14T07:55:57;13.70;99.90
18823;DHT22;9540;51.550;7.980;2022-09-14T07:58:25;13.70;99.90
18823;DHT22;9540;51.550;7.980;2022-09-14T08:00:57;13.70;99.90
18823;DHT22;9540;51.550;7.980;2022-09-14T08:03:24;13.70;99.90
18823;DHT22;9540;51.550;7.980;2022-09-14T08:06:00;13.70;99.90
18823;DHT22;9540;51.550;7.980;2022-09-14T08:08:30;13.60;99.90
18823;DHT22;9540;51.550;7.980;2022-09-14T08:11:03;13.60;99.90
18823;DHT22;9540;51.550;7.980;2022-09-14T08:13:32;13.50;99.90
18823;DHT22;9540;51.550;7.980;2022-09-14T08:15:59;13.40;99.90
18823;DHT22;9540;51.550;7.980;2022-09-14T08:18:27;13.30;99.90
18823;DHT22;9540;51.550;7.980;2022-09-14T08:20:54;13.20;99.90
18823;DHT22;9540;51.550;7.980;2022-09-14T08:23:22;13.20;99.90
18823;DHT22;9540;51.550;7.980;2022-09-14T08:25:51;13.30;99.90
18823;DHT22;9540;51.550;7.980;2022-09-14T08:28:18;13.30;99.90
18823;DHT22;9540;51.550;7.980;2022-09-14T08:30:45;13.30;99.90
18823;DHT22;9540;51.550;7.980;2022-09-14T08:33:12;13.30;99.90
18823;DHT22;9540;51.550;7.980;2022-09-14T08:35:42;13.20;99.90
18823;DHT22;9540;51.550;7.980;2022-09-14T08:38:09;13.20;99.90
18823;DHT22;9540;51.550;7.980;2022-09-14T08:40:42;13.20;99.90
18823;DHT22;9540;51.550;7.980;2022-09-14T08:43:12;13.20;99.90
18823;DHT22;9540;51.550;7.980;2022-09-14T08:45:41;13.20;99.90
18823;DHT22;9540;51.550;7.980;2022-09-14T08:48:16;13.20;99.90
18823;DHT22;9540;51.550;7.980;2022-09-14T08:50:45;13.20;99.90
18823;DHT22;9540;51.550;7.980;2022-09-14T08:53:12;13.20;99.90
18823;DHT22;9540;51.550;7.980;2022-09-14T08:55:43;13.20;99.90
18823;DHT22;9540;51.550;7.980;2022-09-14T08:58:22;13.20;99.90
18823;DHT22;9540;51.550;7.980;2022-09-14T09:00:56;13.20;99.90
18823;DHT22;9540;51.550;7.980;2022-09-14T09:03:42;13.10;99.90
18823;DHT22;9540;51.550;7.980;2022-09-14T09:06:16;13.10;99.90
18823;DHT22;9540;51.550;7.980;2022-09-14T09:08:52;13.10;99.90
18823;DHT22;9540;51.550;7.980;2022-09-14T09:11:35;13.10;99.90
18823;DHT22;9540;51.550;7.980;2022-09-14T09:14:12;13.00;99.90
18823;DHT22;9540;51.550;7.980;2022-09-14T09:16:43;13.10;99.90
18823;DHT22;9540;51.550;7.980;2022-09-14T09:19:18;13.00;99.90
18823;DHT22;9540;51.550;7.980;2022-09-14T09:21:47;13.10;99.90
18823;DHT22;9540;51.550;7.980;2022-09-14T09:24:23;13.10;99.90
18823;DHT22;9540;51.550;7.980;2022-09-14T09:26:52;13.10;99.90
18823;DHT22;9540;51.550;7.980;2022-09-14T09:29:20;13.10;99.90
18823;DHT22;9540;51.550;7.980;2022-09-14T09:31:50;13.10;99.90
18823;DHT22;9540;51.550;7.980;2022-09-14T09:34:24;13.20;99.90
18823;DHT22;9540;51.550;7.980;2022-09-14T09:36:51;13.20;99.90
18823;DHT22;9540;51.550;7.980;2022-09-14T09:39:21;13.20;99.90
18823;DHT22;9540;51.550;7.980;2022-09-14T09:41:54;13.30;99.90
18823;DHT22;9540;51.550;7.980;2022-09-14T09:44:23;13.30;99.90
18823;DHT22;9540;51.550;7.980;2022-09-14T09:46:53;13.30;99.90
18823;DHT22;9540;51.550;7.980;2022-09-14T09:49:24;13.30;99.90
18823;DHT22;9540;51.550;7.980;2022-09-14T09:51:52;13.20;99.90
18823;DHT22;9540;51.550;7.980;2022-09-14T09:54:25;13.20;99.90
18823;DHT22;9540;51.550;7.980;2022-09-14T09:56:55;13.20;99.90
18823;DHT22;9540;51.550;7.980;2022-09-14T09:59:31;13.20;99.90
18823;DHT22;9540;51.550;7.980;2022-09-14T10:02:22;13.20;99.90
18823;DHT22;9540;51.550;7.980;2022-09-14T10:04:57;13.20;99.90
18823;DHT22;9540;51.550;7.980;2022-09-14T10:07:25;13.20;99.90
18823;DHT22;9540;51.550;7.980;2022-09-14T10:09:58;13.30;99.90
18823;DHT22;9540;51.550;7.980;2022-09-14T10:12:26;13.30;99.90
18823;DHT22;9540;51.550;7.980;2022-09-14T10:15:12;13.30;99.90
18823;DHT22;9540;51.550;7.980;2022-09-14T10:17:53;13.40;99.90
18823;DHT22;9540;51.550;7.980;2022-09-14T10:20:22;13.40;99.90
18823;DHT22;9540;51.550;7.980;2022-09-14T10:22:50;13.40;99.90
18823;DHT22;9540;51.550;7.980;2022-09-14T10:25:23;13.40;99.90
18823;DHT22;9540;51.550;7.980;2022-09-14T10:27:57;13.40;99.90
18823;DHT22;9540;51.550;7.980;2022-09-14T10:30:27;13.40;99.90
18823;DHT22;9540;51.550;7.980;2022-09-14T10:32:58;13.40;99.90
18823;DHT22;9540;51.550;7.980;2022-09-14T10:35:38;13.30;99.90
18823;DHT22;9540;51.550;7.980;2022-09-14T10:38:29;13.30;99.90
18823;DHT22;9540;51.550;7.980;2022-09-14T10:41:08;13.30;99.90
18823;DHT22;9540;51.550;7.980;2022-09-14T10:43:49;13.30;99.90
18823;DHT22;9540;51.550;7.980;2022-09-14T10:46:20;13.20;99.90
18823;DHT22;9540;51.550;7.980;2022-09-14T10:49:09;13.20;99.90
18823;DHT22;9540;51.550;7.980;2022-09-14T10:51:51;13.20;99.90
18823;DHT22;9540;51.550;7.980;2022-09-14T10:54:40;13.20;99.90
18823;DHT22;9540;51.550;7.980;2022-09-14T10:57:16;13.20;99.90
18823;DHT22;9540;51.550;7.980;2022-09-14T10:59:52;13.20;99.90
18823;DHT22;9540;51.550;7.980;2022-09-14T11:05:26;13.20;99.90
18823;DHT22;9540;51.550;7.980;2022-09-14T11:10:58;13.20;99.90
18823;DHT22;9540;51.550;7.980;2022-09-14T11:13:47;13.20;99.90
18823;DHT22;9540;51.550;7.980;2022-09-14T11:16:36;13.20;99.90
18823;DHT22;9540;51.550;7.980;2022-09-14T11:19:14;13.20;99.90
18823;DHT22;9540;51.550;7.980;2022-09-14T11:21:54;13.20;99.90
18823;DHT22;9540;51.550;7.980;2022-09-14T11:24:27;13.20;99.90
18823;DHT22;9540;51.550;7.980;2022-09-14T11:27:00;13.20;99.90
18823;DHT22;9540;51.550;7.980;2022-09-14T11:29:34;13.30;99.90
18823;DHT22;9540;51.550;7.980;2022-09-14T11:32:10;13.30;99.90
18823;DHT22;9540;51.550;7.980;2022-09-14T11:34:44;13.30;99.90
18823;DHT22;9540;51.550;7.980;2022-09-14T11:37:16;13.30;99.90
18823;DHT22;9540;51.550;7.980;2022-09-14T11:39:48;13.30;99.90
18823;DHT22;9540;51.550;7.980;2022-09-14T11:42:23;13.30;99.90
18823;DHT22;9540;51.550;7.980;2022-09-14T11:44:57;13.40;99.90
18823;DHT22;9540;51.550;7.980;2022-09-14T11:47:25;13.30;99.90
18823;DHT22;9540;51.550;7.980;2022-09-14T11:49:57;13.40;99.90
18823;DHT22;9540;51.550;7.980;2022-09-14T11:52:29;13.40;99.90
18823;DHT22;9540;51.550;7.980;2022-09-14T11:54:59;13.40;99.90
18823;DHT22;9540;51.550;7.980;2022-09-14T11:57:27;13.40;99.90
18823;DHT22;9540;51.550;7.980;2022-09-14T11:59:56;13.40;99.90
18823;DHT22;9540;51.550;7.980;2022-09-14T12:02:58;13.40;99.90
18823;DHT22;9540;51.550;7.980;2022-09-14T12:05:30;13.40;99.90
18823;DHT22;9540;51.550;7.980;2022-09-14T12:08:02;13.40;99.90
18823;DHT22;9540;51.550;7.980;2022-09-14T12:10:30;13.40;99.90
18823;DHT22;9540;51.550;7.980;2022-09-14T12:13:19;13.40;99.90
18823;DHT22;9540;51.550;7.980;2022-09-14T12:15:46;13.40;99.90
18823;DHT22;9540;51.550;7.980;2022-09-14T12:18:22;13.40;99.90
18823;DHT22;9540;51.550;7.980;2022-09-14T12:21:00;13.50;99.90
18823;DHT22;9540;51.550;7.980;2022-09-14T12:23:46;13.50;99.90
18823;DHT22;9540;51.550;7.980;2022-09-14T12:26:34;13.40;99.90
18823;DHT22;9540;51.550;7.980;2022-09-14T12:29:26;13.50;99.90
18823;DHT22;9540;51.550;7.980;2022-09-14T12:37:52;13.50;99.90
18823;DHT22;9540;51.550;7.980;2022-09-14T12:40:31;13.50;99.90
18823;DHT22;9540;51.550;7.980;2022-09-14T12:46:34;13.50;99.90
18823;DHT22;9540;51.550;7.980;2022-09-14T12:49:22;13.60;99.90
18823;DHT22;9540;51.550;7.980;2022-09-14T12:51:50;13.50;99.90
18823;DHT22;9540;51.550;7.980;2022-09-14T12:54:23;13.50;99.90
18823;DHT22;9540;51.550;7.980;2022-09-14T12:57:02;13.50;99.90
18823;DHT22;9540;51.550;7.980;2022-09-14T12:59:39;13.50;99.90
18823;DHT22;9540;51.550;7.980;2022-09-14T13:02:36;13.50;99.90
18823;DHT22;9540;51.550;7.980;2022-09-14T13:05:11;13.50;99.90
18823;DHT22;9540;51.550;7.980;2022-09-14T13:07:39;13.50;99.90
18823;DHT22;9540;51.550;7.980;2022-09-14T13:10:15;13.50;99.90
18823;DHT22;9540;51.550;7.980;2022-09-14T13:12:44;13.50;99.90
18823;DHT22;9540;51.550;7.980;2022-09-14T13:15:16;13.60;99.90
18823;DHT22;9540;51.550;7.980;2022-09-14T13:17:58;13.60;99.90
18823;DHT22;9540;51.550;7.980;2022-09-14T13:20:26;13.70;99.90
18823;DHT22;9540;51.550;7.980;2022-09-14T13:22:54;13.80;99.90
18823;DHT22;9540;51.550;7.980;2022-09-14T13:25:27;13.90;99.90
18823;DHT22;9540;51.550;7.980;2022-09-14T13:27:56;14.00;99.90
18823;DHT22;9540;51.550;7.980;2022-09-14T13:30:25;14.00;99.90
18823;DHT22;9540;51.550;7.980;2022-09-14T13:32:55;14.00;99.90
18823;DHT22;9540;51.550;7.980;2022-09-14T13:35:27;13.90;99.90
18823;DHT22;9540;51.550;7.980;2022-09-14T13:37:56;14.00;99.90
18823;DHT22;9540;51.550;7.980;2022-09-14T13:40:26;14.00;99.90
18823;DHT22;9540;51.550;7.980;2022-09-14T13:42:56;14.00;99.90
18823;DHT22;9540;51.550;7.980;2022-09-14T13:45:24;14.00;99.90
18823;DHT22;9540;51.550;7.980;2022-09-14T13:47:52;13.90;99.90
18823;DHT22;9540;51.550;7.980;2022-09-14T13:50:21;14.00;99.90
18823;DHT22;9540;51.550;7.980;2022-09-14T13:52:50;14.00;99.90
18823;DHT22;9540;51.550;7.980;2022-09-14T13:55:27;14.00;99.90
18823;DHT22;9540;51.550;7.980;2022-09-14T13:58:15;14.10;99.90
18823;DHT22;9540;51.550;7.980;2022-09-14T14:00:51;14.10;99.90
18823;DHT22;9540;51.550;7.980;2022-09-14T14:03:27;14.00;99.90
18823;DHT22;9540;51.550;7.980;2022-09-14T14:05:55;14.00;99.90
18823;DHT22;9540;51.550;7.980;2022-09-14T14:08:31;14.00;99.90
18823;DHT22;9540;51.550;7.980;2022-09-14T14:10:59;14.00;99.90
18823;DHT22;9540;51.550;7.980;2022-09-14T14:13:32;14.00;99.90
18823;DHT22;9540;51.550;7.980;2022-09-14T14:16:17;14.00;99.90
18823;DHT22;9540;51.550;7.980;2022-09-14T14:18:54;14.00;99.90
18823;DHT22;9540;51.550;7.980;2022-09-14T14:21:27;14.00;99.90
18823;DHT22;9540;51.550;7.980;2022-09-14T14:24:16;14.10;99.90
18823;DHT22;9540;51.550;7.980;2022-09-14T14:26:48;14.10;99.90
18823;DHT22;9540;51.550;7.980;2022-09-14T14:29:18;14.10;99.90
18823;DHT22;9540;51.550;7.980;2022-09-14T14:31:45;14.10;99.90
18823;DHT22;9540;51.550;7.980;2022-09-14T14:34:18;14.20;99.90
18823;DHT22;9540;51.550;7.980;2022-09-14T14:36:46;14.10;99.90
18823;DHT22;9540;51.550;7.980;2022-09-14T14:39:16;14.10;99.90
18823;DHT22;9540;51.550;7.980;2022-09-14T14:41:44;14.10;99.90
18823;DHT22;9540;51.550;7.980;2022-09-14T14:44:14;14.20;99.90
18823;DHT22;9540;51.550;7.980;2022-09-14T14:46:44;14.10;99.90
18823;DHT22;9540;51.550;7.980;2022-09-14T14:49:11;14.20;99.90
18823;DHT22;9540;51.550;7.980;2022-09-14T14:51:39;14.20;99.90
18823;DHT22;9540;51.550;7.980;2022-09-14T14:54:07;14.20;99.90
18823;DHT22;9540;51.550;7.980;2022-09-14T14:56:35;14.30;99.90
18823;DHT22;9540;51.550;7.980;2022-09-14T14:59:13;14.30;99.90
18823;DHT22;9540;51.550;7.980;2022-09-14T15:01:43;14.20;99.90
18823;DHT22;9540;51.550;7.980;2022-09-14T15:04:10;14.20;99.90
18823;DHT22;9540;51.550;7.980;2022-09-14T15:06:41;14.30;99.90
18823;DHT22;9540;51.550;7.980;2022-09-14T15:09:13;14.30;99.90
18823;DHT22;9540;51.550;7.980;2022-09-14T15:11:41;14.30;99.90
18823;DHT22;9540;51.550;7.980;2022-09-14T15:14:10;14.30;99.90
18823;DHT22;9540;51.550;7.980;2022-09-14T15:16:38;14.30;99.90
18823;DHT22;9540;51.550;7.980;2022-09-14T15:19:07;14.20;99.90
18823;DHT22;9540;51.550;7.980;2022-09-14T15:21:35;14.30;99.90
18823;DHT22;9540;51.550;7.980;2022-09-14T15:24:02;14.30;99.90
18823;DHT22;9540;51.550;7.980;2022-09-14T15:26:30;14.30;99.90
18823;DHT22;9540;51.550;7.980;2022-09-14T15:28:57;14.40;99.90
18823;DHT22;9540;51.550;7.980;2022-09-14T15:31:25;14.30;99.90
18823;DHT22;9540;51.550;7.980;2022-09-14T15:33:52;14.40;99.90
18823;DHT22;9540;51.550;7.980;2022-09-14T15:36:46;14.40;99.90
18823;DHT22;9540;51.550;7.980;2022-09-14T15:39:16;14.30;99.90
18823;DHT22;9540;51.550;7.980;2022-09-14T15:41:44;14.40;99.90
18823;DHT22;9540;51.550;7.980;2022-09-14T15:44:11;14.40;99.90
18823;DHT22;9540;51.550;7.980;2022-09-14T15:46:38;14.30;99.90
18823;DHT22;9540;51.550;7.980;2022-09-14T15:49:07;14.30;99.90
18823;DHT22;9540;51.550;7.980;2022-09-14T15:51:36;14.40;99.90
18823;DHT22;9540;51.550;7.980;2022-09-14T15:54:05;14.40;99.90
18823;DHT22;9540;51.550;7.980;2022-09-14T15:56:32;14.40;99.90
18823;DHT22;9540;51.550;7.980;2022-09-14T15:58:59;14.40;99.90
18823;DHT22;9540;51.550;7.980;2022-09-14T16:01:28;14.50;99.90
18823;DHT22;9540;51.550;7.980;2022-09-14T16:03:57;14.50;99.90
18823;DHT22;9540;51.550;7.980;2022-09-14T16:06:24;14.40;99.90
18823;DHT22;9540;51.550;7.980;2022-09-14T16:08:51;14.40;99.90
18823;DHT22;9540;51.550;7.980;2022-09-14T16:11:20;14.40;99.90
18823;DHT22;9540;51.550;7.980;2022-09-14T16:13:49;14.40;99.90
18823;DHT22;9540;51.550;7.980;2022-09-14T16:16:17;14.40;99.90
18823;DHT22;9540;51.550;7.980;2022-09-14T16:18:44;14.40;99.90
18823;DHT22;9540;51.550;7.980;2022-09-14T16:21:14;14.50;99.90
18823;DHT22;9540;51.550;7.980;2022-09-14T16:23:45;14.50;99.90
18823;DHT22;9540;51.550;7.980;2022-09-14T16:26:14;14.50;99.90